sensor_id;sensor_type;location;lat;lon;timestamp;P1;durP1;ratioP1;P2;durP2;ratioP2
21432;SDS011;18592;49.708;10.900;2024-02-23T00:01:47;64.05;;;39.40;;
21432;SDS011;18592;49.708;10.900;2024-02-23T00:03:49;57.75;;;36.05;;
21432;SDS011;18592;49.708;10.900;2024-02-23T00:05:51;58.97;;;35.17;;
21432;SDS011;18592;49.708;10.900;2024-02-23T00:07:59;50.72;;;29.13;;
21432;SDS011;18592;49.708;10.900;2024-02-23T00:10:00;44.83;;;27.33;;
21432;SDS011;18592;49.708;10.900;2024-02-23T00:12:02;46.67;;;28.58;;
21432;SDS011;18592;49.708;10.900;2024-02-23T00:14:18;46.65;;;28.98;;
21432;SDS011;18592;49.708;10.900;2024-02-23T00:16:20;44.75;;;26.27;;
21432;SDS011;18592;49.708;10.900;2024-02-23T00:18:21;37.70;;;22.50;;
21432;SDS011;18592;49.708;10.900;2024-02-23T00:20:23;35.67;;;21.52;;
21432;SDS011;18592;49.708;10.900;2024-02-23T00:22:24;39.38;;;24.38;;
21432;SDS011;18592;49.708;10.900;2024-02-23T00:24:27;44.70;;;26.20;;
21432;SDS011;18592;49.708;10.900;2024-02-23T00:26:28;53.78;;;32.33;;
21432;SDS011;18592;49.708;10.900;2024-02-23T00:28:36;57.65;;;34.28;;
21432;SDS011;18592;49.708;10.900;2024-02-23T00:30:36;51.60;;;30.85;;
21432;SDS011;18592;49.708;10.900;2024-02-23T00:32:38;53.35;;;31.55;;
21432;SDS011;18592;49.708;10.900;2024-02-23T00:34:39;46.80;;;27.35;;
21432;SDS011;18592;49.708;10.900;2024-02-23T00:36:41;52.75;;;31.98;;
21432;SDS011;18592;49.708;10.900;2024-02-23T00:38:59;60.15;;;34.53;;
21432;SDS011;18592;49.708;10.900;2024-02-23T00:41:00;51.55;;;31.10;;
21432;SDS011;18592;49.708;10.900;2024-02-23T00:43:01;38.60;;;23.55;;
21432;SDS011;18592;49.708;10.900;2024-02-23T00:45:04;44.42;;;27.23;;
21432;SDS011;18592;49.708;10.900;2024-02-23T00:47:07;47.45;;;27.92;;
21432;SDS011;18592;49.708;10.900;2024-02-23T00:49:10;43.78;;;27.08;;
21432;SDS011;18592;49.708;10.900;2024-02-23T00:51:10;46.05;;;27.10;;
21432;SDS011;18592;49.708;10.900;2024-02-23T00:53:11;46.33;;;27.55;;
21432;SDS011;18592;49.708;10.900;2024-02-23T00:55:12;45.42;;;26.65;;
21432;SDS011;18592;49.708;10.900;2024-02-23T00:57:14;32.58;;;21.48;;
21432;SDS011;18592;49.708;10.900;2024-02-23T00:59:20;38.50;;;23.20;;
21432;SDS011;18592;49.708;10.900;2024-02-23T01:01:21;42.17;;;24.38;;
21432;SDS011;18592;49.708;10.900;2024-02-23T01:03:26;37.15;;;21.27;;
21432;SDS011;18592;49.708;10.900;2024-02-23T01:05:28;37.00;;;22.35;;
21432;SDS011;18592;49.708;10.900;2024-02-23T01:07:30;38.80;;;23.20;;
21432;SDS011;18592;49.708;10.900;2024-02-23T01:09:34;45.45;;;27.67;;
21432;SDS011;18592;49.708;10.900;2024-02-23T01:11:35;54.28;;;33.03;;
21432;SDS011;18592;49.708;10.900;2024-02-23T01:13:37;76.25;;;43.33;;
21432;SDS011;18592;49.708;10.900;2024-02-23T01:15:39;63.78;;;38.90;;
21432;SDS011;18592;49.708;10.900;2024-02-23T01:17:39;46.60;;;29.42;;
21432;SDS011;18592;49.708;10.900;2024-02-23T01:19:43;45.60;;;28.70;;
21432;SDS011;18592;49.708;10.900;2024-02-23T01:21:45;60.88;;;34.80;;
21432;SDS011;18592;49.708;10.900;2024-02-23T01:24:00;61.22;;;34.72;;
21432;SDS011;18592;49.708;10.900;2024-02-23T01:26:02;50.55;;;31.23;;
21432;SDS011;18592;49.708;10.900;2024-02-23T01:28:04;55.70;;;32.72;;
21432;SDS011;18592;49.708;10.900;2024-02-23T01:30:10;69.13;;;40.90;;
21432;SDS011;18592;49.708;10.900;2024-02-23T01:32:17;70.07;;;41.80;;
21432;SDS011;18592;49.708;10.900;2024-02-23T01:34:19;71.07;;;41.50;;
21432;SDS011;18592;49.708;10.900;2024-02-23T01:36:20;69.25;;;40.75;;
21432;SDS011;18592;49.708;10.900;2024-02-23T01:38:22;74.72;;;42.85;;
21432;SDS011;18592;49.708;10.900;2024-02-23T01:40:24;60.53;;;36.33;;
21432;SDS011;18592;49.708;10.900;2024-02-23T01:42:30;51.40;;;31.55;;
21432;SDS011;18592;49.708;10.900;2024-02-23T01:44:31;52.13;;;30.67;;
21432;SDS011;18592;49.708;10.900;2024-02-23T01:46:33;52.17;;;31.00;;
21432;SDS011;18592;49.708;10.900;2024-02-23T01:48:35;62.88;;;37.85;;
21432;SDS011;18592;49.708;10.900;2024-02-23T01:50:37;54.40;;;33.03;;
21432;SDS011;18592;49.708;10.900;2024-02-23T01:52:39;58.97;;;35.53;;
21432;SDS011;18592;49.708;10.900;2024-02-23T01:54:41;50.42;;;30.75;;
21432;SDS011;18592;49.708;10.900;2024-02-23T01:56:42;52.55;;;30.90;;
21432;SDS011;18592;49.708;10.900;2024-02-23T01:58:44;50.60;;;30.50;;
21432;SDS011;18592;49.708;10.900;2024-02-23T02:00:47;47.17;;;27.73;;
21432;SDS011;18592;49.708;10.900;2024-02-23T02:02:49;40.25;;;24.35;;
21432;SDS011;18592;49.708;10.900;2024-02-23T02:04:51;41.97;;;26.05;;
21432;SDS011;18592;49.708;10.900;2024-02-23T02:07:06;48.20;;;30.35;;
21432;SDS011;18592;49.708;10.900;2024-02-23T02:09:08;45.72;;;28.40;;
21432;SDS011;18592;49.708;10.900;2024-02-23T02:11:08;43.65;;;26.80;;
21432;SDS011;18592;49.708;10.900;2024-02-23T02:13:11;56.75;;;32.63;;
21432;SDS011;18592;49.708;10.900;2024-02-23T02:15:12;54.72;;;32.08;;
21432;SDS011;18592;49.708;10.900;2024-02-23T02:17:14;45.47;;;27.23;;
21432;SDS011;18592;49.708;10.900;2024-02-23T02:19:15;37.67;;;22.85;;
21432;SDS011;18592;49.708;10.900;2024-02-23T02:21:16;34.42;;;21.60;;
21432;SDS011;18592;49.708;10.900;2024-02-23T02:23:16;37.38;;;22.58;;
21432;SDS011;18592;49.708;10.900;2024-02-23T02:25:18;38.58;;;21.23;;
21432;SDS011;18592;49.708;10.900;2024-02-23T02:27:19;35.55;;;22.15;;
21432;SDS011;18592;49.708;10.900;2024-02-23T02:29:19;42.35;;;24.50;;
21432;SDS011;18592;49.708;10.900;2024-02-23T02:31:23;43.88;;;25.70;;
21432;SDS011;18592;49.708;10.900;2024-02-23T02:33:25;37.75;;;23.40;;
21432;SDS011;18592;49.708;10.900;2024-02-23T02:35:30;34.05;;;21.10;;
21432;SDS011;18592;49.708;10.900;2024-02-23T02:37:51;33.33;;;19.63;;
21432;SDS011;18592;49.708;10.900;2024-02-23T02:39:53;35.78;;;20.92;;
21432;SDS011;18592;49.708;10.900;2024-02-23T02:41:54;32.22;;;20.25;;
21432;SDS011;18592;49.708;10.900;2024-02-23T02:43:57;32.63;;;18.35;;
21432;SDS011;18592;49.708;10.900;2024-02-23T02:45:58;29.58;;;17.35;;
21432;SDS011;18592;49.708;10.900;2024-02-23T02:48:00;30.85;;;17.73;;
21432;SDS011;18592;49.708;10.900;2024-02-23T02:50:05;29.40;;;18.02;;
21432;SDS011;18592;49.708;10.900;2024-02-23T02:52:07;26.98;;;16.98;;
21432;SDS011;18592;49.708;10.900;2024-02-23T02:54:09;19.50;;;12.70;;
21432;SDS011;18592;49.708;10.900;2024-02-23T02:56:11;23.55;;;12.80;;
21432;SDS011;18592;49.708;10.900;2024-02-23T02:58:13;23.08;;;12.82;;
21432;SDS011;18592;49.708;10.900;2024-02-23T03:00:15;20.48;;;11.85;;
21432;SDS011;18592;49.708;10.900;2024-02-23T03:02:23;22.42;;;13.38;;
21432;SDS011;18592;49.708;10.900;2024-02-23T03:04:25;29.42;;;17.38;;
21432;SDS011;18592;49.708;10.900;2024-02-23T03:06:26;31.77;;;19.00;;
21432;SDS011;18592;49.708;10.900;2024-02-23T03:08:28;27.10;;;17.85;;
21432;SDS011;18592;49.708;10.900;2024-02-23T03:10:30;26.85;;;16.77;;
21432;SDS011;18592;49.708;10.900;2024-02-23T03:12:31;22.50;;;14.50;;
21432;SDS011;18592;49.708;10.900;2024-02-23T03:14:35;21.30;;;13.13;;
21432;SDS011;18592;49.708;10.900;2024-02-23T03:16:50;25.58;;;15.80;;
21432;SDS011;18592;49.708;10.900;2024-02-23T03:19:01;26.67;;;15.52;;
21432;SDS011;18592;49.708;10.900;2024-02-23T03:21:03;18.15;;;11.73;;
21432;SDS011;18592;49.708;10.900;2024-02-23T03:23:05;21.75;;;12.40;;
21432;SDS011;18592;49.708;10.900;2024-02-23T03:25:20;14.55;;;9.25;;
21432;SDS011;18592;49.708;10.900;2024-02-23T03:27:28;16.15;;;9.50;;
21432;SDS011;18592;49.708;10.900;2024-02-23T03:29:31;16.13;;;9.70;;
21432;SDS011;18592;49.708;10.900;2024-02-23T03:31:40;15.40;;;9.73;;
21432;SDS011;18592;49.708;10.900;2024-02-23T03:33:44;15.40;;;9.60;;
21432;SDS011;18592;49.708;10.900;2024-02-23T03:35:53;15.30;;;9.32;;
21432;SDS011;18592;49.708;10.900;2024-02-23T03:38:06;16.20;;;8.63;;
21432;SDS011;18592;49.708;10.900;2024-02-23T03:40:13;14.70;;;9.60;;
21432;SDS011;18592;49.708;10.900;2024-02-23T03:42:18;17.95;;;11.48;;
21432;SDS011;18592;49.708;10.900;2024-02-23T03:44:20;16.27;;;10.48;;
21432;SDS011;18592;49.708;10.900;2024-02-23T03:46:22;15.43;;;9.32;;
21432;SDS011;18592;49.708;10.900;2024-02-23T03:48:24;14.40;;;8.32;;
21432;SDS011;18592;49.708;10.900;2024-02-23T03:50:28;12.98;;;7.85;;
21432;SDS011;18592;49.708;10.900;2024-02-23T03:52:30;13.20;;;7.78;;
21432;SDS011;18592;49.708;10.900;2024-02-23T03:54:31;13.88;;;8.45;;
21432;SDS011;18592;49.708;10.900;2024-02-23T03:56:40;18.00;;;9.85;;
21432;SDS011;18592;49.708;10.900;2024-02-23T03:58:43;16.40;;;10.23;;
21432;SDS011;18592;49.708;10.900;2024-02-23T04:00:54;16.35;;;10.30;;
21432;SDS011;18592;49.708;10.900;2024-02-23T04:02:56;13.20;;;8.05;;
21432;SDS011;18592;49.708;10.900;2024-02-23T04:04:58;12.85;;;7.13;;
21432;SDS011;18592;49.708;10.900;2024-02-23T04:07:12;15.20;;;7.45;;
21432;SDS011;18592;49.708;10.900;2024-02-23T04:09:13;10.98;;;7.22;;
21432;SDS011;18592;49.708;10.900;2024-02-23T04:11:15;11.90;;;7.13;;
21432;SDS011;18592;49.708;10.900;2024-02-23T04:13:17;11.35;;;6.65;;
21432;SDS011;18592;49.708;10.900;2024-02-23T04:15:27;10.80;;;6.30;;
21432;SDS011;18592;49.708;10.900;2024-02-23T04:17:28;13.55;;;7.93;;
21432;SDS011;18592;49.708;10.900;2024-02-23T04:19:30;14.15;;;7.95;;
21432;SDS011;18592;49.708;10.900;2024-02-23T04:21:32;16.10;;;9.35;;
21432;SDS011;18592;49.708;10.900;2024-02-23T04:23:33;13.05;;;8.52;;
21432;SDS011;18592;49.708;10.900;2024-02-23T04:25:43;16.13;;;9.02;;
21432;SDS011;18592;49.708;10.900;2024-02-23T04:27:45;13.10;;;8.13;;
21432;SDS011;18592;49.708;10.900;2024-02-23T04:40:26;8.13;;;5.68;;
21432;SDS011;18592;49.708;10.900;2024-02-23T04:42:26;9.65;;;5.20;;
21432;SDS011;18592;49.708;10.900;2024-02-23T04:44:28;8.35;;;4.88;;
21432;SDS011;18592;49.708;10.900;2024-02-23T04:46:30;8.35;;;4.47;;
21432;SDS011;18592;49.708;10.900;2024-02-23T04:48:31;7.97;;;4.75;;
21432;SDS011;18592;49.708;10.900;2024-02-23T04:50:31;7.50;;;4.05;;
21432;SDS011;18592;49.708;10.900;2024-02-23T04:52:32;6.55;;;3.63;;
21432;SDS011;18592;49.708;10.900;2024-02-23T04:54:32;7.10;;;3.63;;
21432;SDS011;18592;49.708;10.900;2024-02-23T04:56:33;6.97;;;3.83;;
21432;SDS011;18592;49.708;10.900;2024-02-23T04:58:49;7.57;;;4.57;;
21432;SDS011;18592;49.708;10.900;2024-02-23T05:00:52;10.13;;;5.90;;
21432;SDS011;18592;49.708;10.900;2024-02-23T05:02:52;9.48;;;5.25;;
21432;SDS011;18592;49.708;10.900;2024-02-23T05:04:53;7.65;;;5.20;;
21432;SDS011;18592;49.708;10.900;2024-02-23T05:06:54;7.97;;;4.85;;
21432;SDS011;18592;49.708;10.900;2024-02-23T05:08:55;10.43;;;5.10;;
21432;SDS011;18592;49.708;10.900;2024-02-23T05:10:57;7.90;;;5.03;;
21432;SDS011;18592;49.708;10.900;2024-02-23T05:12:57;9.18;;;5.10;;
21432;SDS011;18592;49.708;10.900;2024-02-23T05:14:58;8.05;;;5.30;;
21432;SDS011;18592;49.708;10.900;2024-02-23T05:16:58;8.68;;;5.25;;
21432;SDS011;18592;49.708;10.900;2024-02-23T05:19:01;5.35;;;3.70;;
21432;SDS011;18592;49.708;10.900;2024-02-23T05:21:02;6.50;;;4.00;;
21432;SDS011;18592;49.708;10.900;2024-02-23T05:23:03;5.70;;;3.92;;
21432;SDS011;18592;49.708;10.900;2024-02-23T05:25:05;6.80;;;3.97;;
21432;SDS011;18592;49.708;10.900;2024-02-23T05:27:11;6.43;;;4.07;;
21432;SDS011;18592;49.708;10.900;2024-02-23T05:29:23;5.63;;;3.47;;
21432;SDS011;18592;49.708;10.900;2024-02-23T05:44:33;6.00;;;2.90;;
21432;SDS011;18592;49.708;10.900;2024-02-23T05:46:35;4.50;;;2.63;;
21432;SDS011;18592;49.708;10.900;2024-02-23T05:48:38;4.63;;;2.40;;
21432;SDS011;18592;49.708;10.900;2024-02-23T05:50:40;5.10;;;2.90;;
21432;SDS011;18592;49.708;10.900;2024-02-23T05:52:40;4.63;;;2.75;;
21432;SDS011;18592;49.708;10.900;2024-02-23T05:54:41;3.88;;;2.50;;
21432;SDS011;18592;49.708;10.900;2024-02-23T06:07:28;4.63;;;2.33;;
21432;SDS011;18592;49.708;10.900;2024-02-23T06:09:29;3.25;;;2.33;;
21432;SDS011;18592;49.708;10.900;2024-02-23T06:11:31;3.38;;;1.90;;
21432;SDS011;18592;49.708;10.900;2024-02-23T06:13:31;4.45;;;2.58;;
21432;SDS011;18592;49.708;10.900;2024-02-23T06:15:32;4.15;;;2.05;;
21432;SDS011;18592;49.708;10.900;2024-02-23T06:17:33;2.97;;;1.92;;
21432;SDS011;18592;49.708;10.900;2024-02-23T06:19:48;4.18;;;1.90;;
21432;SDS011;18592;49.708;10.900;2024-02-23T06:21:49;3.58;;;1.80;;
21432;SDS011;18592;49.708;10.900;2024-02-23T06:23:50;3.75;;;1.75;;
21432;SDS011;18592;49.708;10.900;2024-02-23T06:25:52;3.00;;;1.70;;
21432;SDS011;18592;49.708;10.900;2024-02-23T06:27:53;3.55;;;1.48;;
21432;SDS011;18592;49.708;10.900;2024-02-23T06:29:54;2.92;;;1.80;;
21432;SDS011;18592;49.708;10.900;2024-02-23T06:31:55;3.53;;;1.63;;
21432;SDS011;18592;49.708;10.900;2024-02-23T06:33:57;3.13;;;1.95;;
21432;SDS011;18592;49.708;10.900;2024-02-23T06:35:59;1.60;;;1.30;;
21432;SDS011;18592;49.708;10.900;2024-02-23T06:38:14;3.38;;;1.67;;
21432;SDS011;18592;49.708;10.900;2024-02-23T06:40:16;2.70;;;1.70;;
21432;SDS011;18592;49.708;10.900;2024-02-23T06:42:16;2.75;;;1.50;;
21432;SDS011;18592;49.708;10.900;2024-02-23T06:54:57;1.45;;;0.85;;
21432;SDS011;18592;49.708;10.900;2024-02-23T06:56:57;4.10;;;1.13;;
21432;SDS011;18592;49.708;10.900;2024-02-23T06:59:13;3.10;;;0.98;;
21432;SDS011;18592;49.708;10.900;2024-02-23T07:01:15;2.88;;;1.30;;
21432;SDS011;18592;49.708;10.900;2024-02-23T07:03:15;1.90;;;1.10;;
21432;SDS011;18592;49.708;10.900;2024-02-23T07:05:16;2.65;;;0.90;;
21432;SDS011;18592;49.708;10.900;2024-02-23T07:07:18;3.85;;;1.20;;
21432;SDS011;18592;49.708;10.900;2024-02-23T07:09:18;5.10;;;2.47;;
21432;SDS011;18592;49.708;10.900;2024-02-23T07:11:18;10.50;;;3.72;;
21432;SDS011;18592;49.708;10.900;2024-02-23T07:13:19;11.02;;;4.22;;
21432;SDS011;18592;49.708;10.900;2024-02-23T07:15:20;14.13;;;5.22;;
21432;SDS011;18592;49.708;10.900;2024-02-23T07:17:26;14.50;;;5.35;;
21432;SDS011;18592;49.708;10.900;2024-02-23T07:19:28;16.52;;;6.18;;
21432;SDS011;18592;49.708;10.900;2024-02-23T07:21:31;14.55;;;6.03;;
21432;SDS011;18592;49.708;10.900;2024-02-23T07:23:33;17.67;;;6.95;;
21432;SDS011;18592;49.708;10.900;2024-02-23T07:25:33;21.05;;;8.48;;
21432;SDS011;18592;49.708;10.900;2024-02-23T07:27:48;20.50;;;8.20;;
21432;SDS011;18592;49.708;10.900;2024-02-23T07:29:50;17.48;;;6.47;;
21432;SDS011;18592;49.708;10.900;2024-02-23T07:31:52;17.20;;;7.13;;
21432;SDS011;18592;49.708;10.900;2024-02-23T07:33:52;16.55;;;6.43;;
21432;SDS011;18592;49.708;10.900;2024-02-23T07:35:58;16.80;;;6.28;;
21432;SDS011;18592;49.708;10.900;2024-02-23T07:38:00;16.02;;;6.90;;
21432;SDS011;18592;49.708;10.900;2024-02-23T07:40:12;16.60;;;6.53;;
21432;SDS011;18592;49.708;10.900;2024-02-23T07:42:14;14.93;;;6.13;;
21432;SDS011;18592;49.708;10.900;2024-02-23T07:44:19;16.10;;;6.03;;
21432;SDS011;18592;49.708;10.900;2024-02-23T07:46:21;13.30;;;5.55;;
21432;SDS011;18592;49.708;10.900;2024-02-23T07:48:27;10.73;;;4.57;;
21432;SDS011;18592;49.708;10.900;2024-02-23T07:50:29;11.00;;;4.15;;
21432;SDS011;18592;49.708;10.900;2024-02-23T07:52:32;12.50;;;4.43;;
21432;SDS011;18592;49.708;10.900;2024-02-23T07:54:47;12.57;;;4.63;;
21432;SDS011;18592;49.708;10.900;2024-02-23T07:56:51;9.38;;;4.07;;
21432;SDS011;18592;49.708;10.900;2024-02-23T07:58:51;12.68;;;4.60;;
21432;SDS011;18592;49.708;10.900;2024-02-23T08:00:54;9.45;;;4.03;;
21432;SDS011;18592;49.708;10.900;2024-02-23T08:02:55;8.10;;;3.35;;
21432;SDS011;18592;49.708;10.900;2024-02-23T08:05:01;7.45;;;3.45;;
21432;SDS011;18592;49.708;10.900;2024-02-23T08:07:03;7.05;;;3.10;;
21432;SDS011;18592;49.708;10.900;2024-02-23T08:09:05;4.75;;;2.25;;
21432;SDS011;18592;49.708;10.900;2024-02-23T08:11:11;4.53;;;2.10;;
21432;SDS011;18592;49.708;10.900;2024-02-23T08:13:28;5.68;;;2.53;;
21432;SDS011;18592;49.708;10.900;2024-02-23T08:15:30;7.57;;;2.58;;
21432;SDS011;18592;49.708;10.900;2024-02-23T08:17:32;4.18;;;2.25;;
21432;SDS011;18592;49.708;10.900;2024-02-23T08:19:33;4.65;;;1.65;;
21432;SDS011;18592;49.708;10.900;2024-02-23T08:21:49;4.25;;;1.98;;
21432;SDS011;18592;49.708;10.900;2024-02-23T08:23:51;6.93;;;1.88;;
21432;SDS011;18592;49.708;10.900;2024-02-23T08:25:59;2.95;;;1.38;;
21432;SDS011;18592;49.708;10.900;2024-02-23T08:28:02;5.28;;;1.77;;
21432;SDS011;18592;49.708;10.900;2024-02-23T08:30:04;5.15;;;2.05;;
21432;SDS011;18592;49.708;10.900;2024-02-23T08:32:06;4.35;;;1.83;;
21432;SDS011;18592;49.708;10.900;2024-02-23T08:34:12;4.85;;;1.90;;
21432;SDS011;18592;49.708;10.900;2024-02-23T08:36:13;4.13;;;1.67;;
21432;SDS011;18592;49.708;10.900;2024-02-23T08:38:15;4.10;;;1.75;;
21432;SDS011;18592;49.708;10.900;2024-02-23T08:40:16;2.95;;;1.52;;
21432;SDS011;18592;49.708;10.900;2024-02-23T08:42:18;4.30;;;1.63;;
21432;SDS011;18592;49.708;10.900;2024-02-23T08:44:20;4.05;;;1.75;;
21432;SDS011;18592;49.708;10.900;2024-02-23T08:46:23;4.07;;;1.55;;
21432;SDS011;18592;49.708;10.900;2024-02-23T08:48:25;4.35;;;1.80;;
21432;SDS011;18592;49.708;10.900;2024-02-23T08:50:26;4.10;;;1.70;;
21432;SDS011;18592;49.708;10.900;2024-02-23T08:52:28;3.47;;;1.60;;
21432;SDS011;18592;49.708;10.900;2024-02-23T08:54:30;3.58;;;1.48;;
21432;SDS011;18592;49.708;10.900;2024-02-23T08:56:40;3.70;;;1.48;;
21432;SDS011;18592;49.708;10.900;2024-02-23T08:58:42;3.05;;;1.20;;
21432;SDS011;18592;49.708;10.900;2024-02-23T09:00:51;3.00;;;1.20;;
21432;SDS011;18592;49.708;10.900;2024-02-23T09:02:58;4.03;;;1.73;;
21432;SDS011;18592;49.708;10.900;2024-02-23T09:05:15;5.00;;;1.40;;
21432;SDS011;18592;49.708;10.900;2024-02-23T09:07:20;4.63;;;1.60;;
21432;SDS011;18592;49.708;10.900;2024-02-23T09:09:23;5.43;;;1.90;;
21432;SDS011;18592;49.708;10.900;2024-02-23T09:11:26;7.68;;;3.05;;
21432;SDS011;18592;49.708;10.900;2024-02-23T09:13:28;11.40;;;4.50;;
21432;SDS011;18592;49.708;10.900;2024-02-23T09:15:44;11.50;;;4.43;;
21432;SDS011;18592;49.708;10.900;2024-02-23T09:17:46;16.52;;;5.82;;
21432;SDS011;18592;49.708;10.900;2024-02-23T09:19:59;13.85;;;5.55;;
21432;SDS011;18592;49.708;10.900;2024-02-23T09:22:00;15.95;;;6.03;;
21432;SDS011;18592;49.708;10.900;2024-02-23T09:24:15;15.32;;;5.65;;
21432;SDS011;18592;49.708;10.900;2024-02-23T09:26:29;12.65;;;4.90;;
21432;SDS011;18592;49.708;10.900;2024-02-23T09:28:31;14.45;;;6.30;;
21432;SDS011;18592;49.708;10.900;2024-02-23T09:30:34;15.23;;;5.90;;
21432;SDS011;18592;49.708;10.900;2024-02-23T09:32:35;12.48;;;5.20;;
21432;SDS011;18592;49.708;10.900;2024-02-23T09:34:51;14.82;;;5.65;;
21432;SDS011;18592;49.708;10.900;2024-02-23T09:36:58;14.18;;;6.20;;
21432;SDS011;18592;49.708;10.900;2024-02-23T09:39:14;14.73;;;5.80;;
21432;SDS011;18592;49.708;10.900;2024-02-23T09:41:19;12.77;;;4.75;;
21432;SDS011;18592;49.708;10.900;2024-02-23T09:43:35;11.45;;;4.32;;
21432;SDS011;18592;49.708;10.900;2024-02-23T09:45:52;11.70;;;5.45;;
21432;SDS011;18592;49.708;10.900;2024-02-23T09:48:01;10.63;;;4.63;;
21432;SDS011;18592;49.708;10.900;2024-02-23T09:50:06;10.73;;;4.05;;
21432;SDS011;18592;49.708;10.900;2024-02-23T09:52:23;7.28;;;2.80;;
21432;SDS011;18592;49.708;10.900;2024-02-23T09:54:25;7.88;;;3.08;;
21432;SDS011;18592;49.708;10.900;2024-02-23T09:56:30;8.02;;;3.30;;
21432;SDS011;18592;49.708;10.900;2024-02-23T09:58:39;6.95;;;2.67;;
21432;SDS011;18592;49.708;10.900;2024-02-23T10:00:42;9.30;;;3.08;;
21432;SDS011;18592;49.708;10.900;2024-02-23T10:02:45;9.32;;;3.20;;
21432;SDS011;18592;49.708;10.900;2024-02-23T10:04:47;9.50;;;3.35;;
21432;SDS011;18592;49.708;10.900;2024-02-23T10:07:05;7.47;;;2.83;;
21432;SDS011;18592;49.708;10.900;2024-02-23T10:09:07;5.50;;;2.25;;
21432;SDS011;18592;49.708;10.900;2024-02-23T10:11:11;6.93;;;3.03;;
21432;SDS011;18592;49.708;10.900;2024-02-23T10:13:27;9.43;;;3.38;;
21432;SDS011;18592;49.708;10.900;2024-02-23T10:15:44;6.72;;;2.88;;
21432;SDS011;18592;49.708;10.900;2024-02-23T10:18:06;9.80;;;3.58;;
21432;SDS011;18592;49.708;10.900;2024-02-23T10:20:09;7.40;;;3.30;;
21432;SDS011;18592;49.708;10.900;2024-02-23T10:22:12;7.13;;;2.75;;
21432;SDS011;18592;49.708;10.900;2024-02-23T10:24:22;5.38;;;2.33;;
21432;SDS011;18592;49.708;10.900;2024-02-23T10:26:32;4.25;;;2.20;;
21432;SDS011;18592;49.708;10.900;2024-02-23T10:28:34;7.13;;;2.17;;
21432;SDS011;18592;49.708;10.900;2024-02-23T10:30:42;4.40;;;2.28;;
21432;SDS011;18592;49.708;10.900;2024-02-23T10:32:57;4.38;;;2.03;;
21432;SDS011;18592;49.708;10.900;2024-02-23T10:35:00;2.42;;;1.60;;
21432;SDS011;18592;49.708;10.900;2024-02-23T10:37:05;4.93;;;1.50;;
21432;SDS011;18592;49.708;10.900;2024-02-23T10:39:15;2.70;;;1.30;;
21432;SDS011;18592;49.708;10.900;2024-02-23T10:41:17;3.67;;;1.55;;
21432;SDS011;18592;49.708;10.900;2024-02-23T10:43:33;3.20;;;1.25;;
21432;SDS011;18592;49.708;10.900;2024-02-23T10:45:41;2.72;;;1.50;;
21432;SDS011;18592;49.708;10.900;2024-02-23T10:47:47;5.45;;;1.70;;
21432;SDS011;18592;49.708;10.900;2024-02-23T10:49:50;3.17;;;1.60;;
21432;SDS011;18592;49.708;10.900;2024-02-23T10:51:53;4.43;;;1.35;;
21432;SDS011;18592;49.708;10.900;2024-02-23T10:53:58;4.18;;;1.52;;
21432;SDS011;18592;49.708;10.900;2024-02-23T10:56:01;3.67;;;1.30;;
21432;SDS011;18592;49.708;10.900;2024-02-23T10:58:08;3.53;;;1.27;;
21432;SDS011;18592;49.708;10.900;2024-02-23T11:00:12;2.65;;;1.20;;
21432;SDS011;18592;49.708;10.900;2024-02-23T11:02:17;2.67;;;1.10;;
21432;SDS011;18592;49.708;10.900;2024-02-23T11:04:22;2.00;;;1.00;;
21432;SDS011;18592;49.708;10.900;2024-02-23T11:06:32;3.15;;;1.25;;
21432;SDS011;18592;49.708;10.900;2024-02-23T11:08:35;4.43;;;1.77;;
21432;SDS011;18592;49.708;10.900;2024-02-23T11:10:42;4.97;;;2.30;;
21432;SDS011;18592;49.708;10.900;2024-02-23T11:12:56;8.73;;;2.80;;
21432;SDS011;18592;49.708;10.900;2024-02-23T11:14:59;9.00;;;3.22;;
21432;SDS011;18592;49.708;10.900;2024-02-23T11:17:02;7.90;;;3.83;;
21432;SDS011;18592;49.708;10.900;2024-02-23T11:19:05;9.88;;;4.30;;
21432;SDS011;18592;49.708;10.900;2024-02-23T11:21:13;7.95;;;3.30;;
21432;SDS011;18592;49.708;10.900;2024-02-23T11:23:15;7.72;;;3.30;;
21432;SDS011;18592;49.708;10.900;2024-02-23T11:25:17;10.85;;;4.40;;
21432;SDS011;18592;49.708;10.900;2024-02-23T11:27:19;11.43;;;4.68;;
21432;SDS011;18592;49.708;10.900;2024-02-23T11:29:21;11.00;;;4.75;;
21432;SDS011;18592;49.708;10.900;2024-02-23T11:33:49;9.90;;;3.83;;
21432;SDS011;18592;49.708;10.900;2024-02-23T11:36:04;7.82;;;3.40;;
21432;SDS011;18592;49.708;10.900;2024-02-23T11:38:06;9.90;;;3.78;;
21432;SDS011;18592;49.708;10.900;2024-02-23T11:40:08;13.02;;;4.20;;
21432;SDS011;18592;49.708;10.900;2024-02-23T11:42:11;9.35;;;3.47;;
21432;SDS011;18592;49.708;10.900;2024-02-23T11:44:13;7.22;;;2.60;;
21432;SDS011;18592;49.708;10.900;2024-02-23T11:46:24;6.60;;;2.50;;
21432;SDS011;18592;49.708;10.900;2024-02-23T11:48:25;5.57;;;2.35;;
21432;SDS011;18592;49.708;10.900;2024-02-23T11:50:35;6.18;;;2.45;;
21432;SDS011;18592;49.708;10.900;2024-02-23T11:52:37;5.13;;;2.20;;
21432;SDS011;18592;49.708;10.900;2024-02-23T11:54:40;4.35;;;2.03;;
21432;SDS011;18592;49.708;10.900;2024-02-23T11:56:56;9.07;;;3.10;;
21432;SDS011;18592;49.708;10.900;2024-02-23T11:59:10;4.68;;;2.03;;
21432;SDS011;18592;49.708;10.900;2024-02-23T12:12:04;4.93;;;2.15;;
21432;SDS011;18592;49.708;10.900;2024-02-23T12:14:04;4.97;;;2.22;;
21432;SDS011;18592;49.708;10.900;2024-02-23T12:16:23;5.50;;;2.42;;
21432;SDS011;18592;49.708;10.900;2024-02-23T12:18:48;4.43;;;2.20;;
21432;SDS011;18592;49.708;10.900;2024-02-23T12:20:58;6.55;;;2.40;;
21432;SDS011;18592;49.708;10.900;2024-02-23T12:23:01;7.28;;;3.08;;
21432;SDS011;18592;49.708;10.900;2024-02-23T12:25:03;6.38;;;2.42;;
21432;SDS011;18592;49.708;10.900;2024-02-23T12:27:08;5.47;;;2.30;;
21432;SDS011;18592;49.708;10.900;2024-02-23T12:29:09;5.55;;;2.90;;
21432;SDS011;18592;49.708;10.900;2024-02-23T12:31:11;5.95;;;2.72;;
21432;SDS011;18592;49.708;10.900;2024-02-23T12:33:18;8.10;;;3.28;;
21432;SDS011;18592;49.708;10.900;2024-02-23T12:35:21;7.72;;;2.55;;
21432;SDS011;18592;49.708;10.900;2024-02-23T12:37:45;6.03;;;2.00;;
21432;SDS011;18592;49.708;10.900;2024-02-23T12:39:47;4.45;;;2.05;;
21432;SDS011;18592;49.708;10.900;2024-02-23T12:41:48;6.22;;;2.05;;
21432;SDS011;18592;49.708;10.900;2024-02-23T12:43:54;6.85;;;2.90;;
21432;SDS011;18592;49.708;10.900;2024-02-23T12:45:56;6.35;;;2.80;;
21432;SDS011;18592;49.708;10.900;2024-02-23T12:47:59;4.43;;;2.30;;
21432;SDS011;18592;49.708;10.900;2024-02-23T12:50:00;6.72;;;2.88;;
21432;SDS011;18592;49.708;10.900;2024-02-23T12:52:02;7.22;;;2.72;;
21432;SDS011;18592;49.708;10.900;2024-02-23T12:54:04;5.28;;;2.47;;
21432;SDS011;18592;49.708;10.900;2024-02-23T12:56:06;8.80;;;3.17;;
21432;SDS011;18592;49.708;10.900;2024-02-23T12:58:09;7.63;;;3.45;;
21432;SDS011;18592;49.708;10.900;2024-02-23T13:00:11;7.53;;;3.03;;
21432;SDS011;18592;49.708;10.900;2024-02-23T13:02:13;8.73;;;2.70;;
21432;SDS011;18592;49.708;10.900;2024-02-23T13:04:15;7.55;;;3.10;;
21432;SDS011;18592;49.708;10.900;2024-02-23T13:06:16;8.38;;;3.33;;
21432;SDS011;18592;49.708;10.900;2024-02-23T13:08:18;14.90;;;5.72;;